createdAt,value
2022-10-19T00:00:32.165Z,100.00
2022-10-19T00:02:58.680Z,100.00
2022-10-19T00:05:28.386Z,100.00
2022-10-19T00:07:55.580Z,100.00
2022-10-19T00:10:22.083Z,100.00
2022-10-19T00:15:15.512Z,100.00
2022-10-19T00:17:43.241Z,100.00
2022-10-19T00:20:10.413Z,100.00
2022-10-19T00:22:36.887Z,100.00
2022-10-19T00:25:03.809Z,100.00
2022-10-19T00:27:30.529Z,100.00
2022-10-19T00:29:57.027Z,100.00
2022-10-19T00:32:23.498Z,100.00
2022-10-19T00:34:50.088Z,100.00
2022-10-19T00:37:16.802Z,100.00
2022-10-19T00:39:43.343Z,100.00
2022-10-19T00:42:13.148Z,100.00
2022-10-19T00:44:39.511Z,100.00
2022-10-19T00:47:08.026Z,100.00
2022-10-19T00:49:42.807Z,100.00
2022-10-19T00:52:12.672Z,100.00
2022-10-19T00:54:41.468Z,100.00
2022-10-19T00:57:08.181Z,100.00
2022-10-19T00:59:35.074Z,100.00
2022-10-19T01:02:03.473Z,100.00
2022-10-19T01:04:30.908Z,100.00
2022-10-19T01:06:57.614Z,100.00
2022-10-19T01:09:24.103Z,100.00
2022-10-19T01:12:36.280Z,100.00
2022-10-19T01:15:27.713Z,100.00
2022-10-19T01:18:01.022Z,100.00
2022-10-19T01:20:46.301Z,100.00
2022-10-19T01:23:38.244Z,100.00
2022-10-19T01:26:32.679Z,100.00
2022-10-19T01:29:08.583Z,100.00
2022-10-19T01:31:48.503Z,100.00
2022-10-19T01:34:17.968Z,100.00
2022-10-19T01:36:55.776Z,100.00
2022-10-19T01:39:32.384Z,100.00
2022-10-19T01:42:36.432Z,100.00
2022-10-19T01:45:26.204Z,100.00
2022-10-19T01:47:59.878Z,100.00
2022-10-19T01:50:32.373Z,100.00
2022-10-19T01:52:59.411Z,100.00
2022-10-19T01:55:26.874Z,100.00
2022-10-19T01:58:08.352Z,100.00
2022-10-19T02:00:37.878Z,100.00
2022-10-19T02:03:05.458Z,100.00
2022-10-19T02:05:33.379Z,100.00
2022-10-19T02:08:03.207Z,100.00
2022-10-19T02:10:31.804Z,100.00
2022-10-19T02:12:58.400Z,100.00
2022-10-19T02:15:26.887Z,100.00
2022-10-19T02:17:57.366Z,100.00
2022-10-19T02:20:24.254Z,100.00
2022-10-19T02:22:50.933Z,100.00
2022-10-19T02:25:17.422Z,100.00
2022-10-19T02:27:44.220Z,100.00
2022-10-19T02:30:16.572Z,100.00
2022-10-19T02:32:44.107Z,100.00
2022-10-19T02:35:12.244Z,100.00
2022-10-19T02:37:40.445Z,100.00
2022-10-19T02:40:07.893Z,100.00
2022-10-19T02:42:42.072Z,100.00
2022-10-19T02:45:16.778Z,100.00
2022-10-19T02:47:48.699Z,100.00
2022-10-19T02:50:15.563Z,100.00
2022-10-19T02:52:42.062Z,100.00
2022-10-19T02:55:09.216Z,100.00
2022-10-19T02:57:36.264Z,100.00
2022-10-19T03:00:05.428Z,100.00
2022-10-19T03:02:31.998Z,100.00
2022-10-19T03:04:58.623Z,100.00
2022-10-19T03:07:25.303Z,100.00
2022-10-19T03:09:51.776Z,100.00
2022-10-19T03:12:18.291Z,100.00
2022-10-19T03:14:44.907Z,100.00
2022-10-19T03:17:11.742Z,100.00
2022-10-19T03:19:38.278Z,100.00
2022-10-19T03:22:05.749Z,100.00
2022-10-19T03:24:32.940Z,100.00
2022-10-19T03:26:59.451Z,100.00
2022-10-19T03:29:25.975Z,100.00
2022-10-19T03:31:52.584Z,100.00
2022-10-19T03:34:19.056Z,100.00
2022-10-19T03:36:45.528Z,100.00
2022-10-19T03:39:13.666Z,100.00
2022-10-19T03:41:40.324Z,100.00
2022-10-19T03:44:08.356Z,100.00
2022-10-19T03:46:35.485Z,100.00
2022-10-19T03:49:02.066Z,100.00
2022-10-19T03:51:29.909Z,100.00
2022-10-19T03:54:02.005Z,100.00
2022-10-19T03:56:30.236Z,100.00
2022-10-19T03:58:58.477Z,100.00
2022-10-19T04:01:30.424Z,100.00
2022-10-19T04:03:58.536Z,100.00
2022-10-19T04:06:27.601Z,100.00
2022-10-19T04:08:54.246Z,100.00
2022-10-19T04:11:23.872Z,100.00
2022-10-19T04:13:51.381Z,100.00
2022-10-19T04:16:18.421Z,100.00
2022-10-19T04:18:45.053Z,100.00
2022-10-19T04:21:24.649Z,100.00
2022-10-19T04:23:52.311Z,100.00
2022-10-19T04:26:19.091Z,100.00
2022-10-19T04:28:45.617Z,100.00
2022-10-19T04:31:12.746Z,100.00
2022-10-19T04:33:39.711Z,100.00
2022-10-19T04:36:08.448Z,100.00
2022-10-19T04:38:35.513Z,100.00
2022-10-19T04:41:06.130Z,100.00
2022-10-19T04:43:32.852Z,100.00
2022-10-19T04:46:10.076Z,100.00
2022-10-19T04:48:38.115Z,100.00
2022-10-19T04:51:05.211Z,100.00
2022-10-19T04:53:32.145Z,100.00
2022-10-19T04:55:58.653Z,100.00
2022-10-19T04:58:25.207Z,100.00
2022-10-19T05:00:51.962Z,100.00
2022-10-19T05:03:18.474Z,100.00
2022-10-19T05:05:44.968Z,100.00
2022-10-19T05:08:11.662Z,100.00
2022-10-19T05:10:38.335Z,100.00
2022-10-19T05:13:04.928Z,100.00
2022-10-19T05:15:31.444Z,100.00
2022-10-19T05:17:58.011Z,100.00
2022-10-19T05:20:24.843Z,100.00
2022-10-19T05:22:51.787Z,100.00
2022-10-19T05:25:18.427Z,100.00
2022-10-19T05:27:44.926Z,100.00
2022-10-19T05:30:11.514Z,100.00
2022-10-19T05:32:38.002Z,100.00
2022-10-19T05:35:04.700Z,100.00
2022-10-19T05:37:31.468Z,100.00
2022-10-19T05:39:58.145Z,100.00
2022-10-19T05:42:24.637Z,100.00
2022-10-19T05:44:51.105Z,100.00
2022-10-19T05:47:17.912Z,100.00
2022-10-19T05:49:44.500Z,100.00
2022-10-19T05:52:11.011Z,100.00
2022-10-19T05:54:37.608Z,100.00
2022-10-19T05:57:04.154Z,100.00
2022-10-19T05:59:30.995Z,100.00
2022-10-19T06:01:57.490Z,100.00
2022-10-19T06:04:24.009Z,100.00
2022-10-19T06:06:50.561Z,100.00
2022-10-19T06:09:17.259Z,100.00
2022-10-19T06:11:43.764Z,100.00
2022-10-19T06:14:15.701Z,100.00
2022-10-19T06:16:42.444Z,100.00
2022-10-19T06:19:08.962Z,100.00
2022-10-19T06:21:35.544Z,100.00
2022-10-19T06:24:04.550Z,100.00
2022-10-19T06:26:32.484Z,100.00
2022-10-19T06:29:00.596Z,100.00
2022-10-19T06:31:31.568Z,100.00
2022-10-19T06:33:58.210Z,100.00
2022-10-19T06:36:28.331Z,100.00
2022-10-19T06:38:56.461Z,100.00
2022-10-19T06:41:23.492Z,100.00
2022-10-19T06:43:51.107Z,100.00
2022-10-19T06:46:20.439Z,100.00
2022-10-19T06:48:54.916Z,100.00
2022-10-19T06:51:21.742Z,100.00
2022-10-19T06:53:52.961Z,100.00
2022-10-19T06:56:24.487Z,100.00
2022-10-19T06:58:51.003Z,97.85
2022-10-19T07:01:18.451Z,92.09
2022-10-19T07:03:45.092Z,85.65
2022-10-19T07:06:12.949Z,80.83
2022-10-19T07:08:41.042Z,83.64
2022-10-19T07:11:10.500Z,86.40
2022-10-19T07:13:37.407Z,86.54
2022-10-19T07:16:16.144Z,88.66
2022-10-19T07:18:46.671Z,92.22
2022-10-19T07:21:14.930Z,95.05
2022-10-19T07:23:43.195Z,97.55
2022-10-19T07:26:18.629Z,97.49
2022-10-19T07:28:46.734Z,97.95
2022-10-19T07:31:17.669Z,97.77
2022-10-19T07:33:44.688Z,97.51
2022-10-19T07:36:13.557Z,97.80
2022-10-19T07:38:40.499Z,98.13
2022-10-19T07:41:15.081Z,98.42
2022-10-19T07:43:42.348Z,98.83
2022-10-19T07:46:11.752Z,98.75
2022-10-19T07:48:38.203Z,98.70
2022-10-19T07:51:07.142Z,99.50
2022-10-19T07:53:34.472Z,99.14
2022-10-19T07:56:10.474Z,96.56
2022-10-19T07:58:37.487Z,94.88
2022-10-19T08:01:13.079Z,95.13
2022-10-19T08:06:26.320Z,97.51
2022-10-19T08:08:53.463Z,98.38
2022-10-19T08:11:23.233Z,98.70
2022-10-19T08:13:50.141Z,100.00
2022-10-19T08:16:36.586Z,100.00
2022-10-19T08:19:07.147Z,100.00
2022-10-19T08:21:34.489Z,100.00
2022-10-19T08:24:01.043Z,100.00
2022-10-19T08:26:32.303Z,100.00
2022-10-19T08:29:02.759Z,100.00
2022-10-19T08:31:29.426Z,100.00
2022-10-19T08:33:56.298Z,100.00
2022-10-19T08:36:23.239Z,100.00
2022-10-19T08:38:50.162Z,100.00
2022-10-19T08:41:22.534Z,100.00
2022-10-19T08:43:59.401Z,100.00
2022-10-19T08:46:43.967Z,100.00
2022-10-19T08:49:13.011Z,100.00
2022-10-19T08:51:40.822Z,100.00
2022-10-19T08:54:12.460Z,100.00
2022-10-19T08:56:51.403Z,100.00
2022-10-19T08:59:23.840Z,100.00
2022-10-19T09:01:57.021Z,100.00
2022-10-19T09:04:39.860Z,100.00
2022-10-19T09:07:18.243Z,99.23
2022-10-19T09:09:50.630Z,99.07
2022-10-19T09:12:19.974Z,98.90
2022-10-19T09:14:55.450Z,98.42
2022-10-19T09:17:21.920Z,98.16
2022-10-19T09:19:48.432Z,98.03
2022-10-19T09:22:26.252Z,99.08
2022-10-19T09:24:55.620Z,98.25
2022-10-19T09:27:29.363Z,97.51
2022-10-19T09:30:03.677Z,97.64
2022-10-19T09:32:36.201Z,95.55
2022-10-19T09:35:14.888Z,93.82
2022-10-19T09:37:45.802Z,92.92
2022-10-19T09:40:27.112Z,91.25
2022-10-19T09:43:03.278Z,91.87
2022-10-19T09:45:44.194Z,90.93
2022-10-19T09:48:36.095Z,89.88
2022-10-19T09:51:03.923Z,89.83
2022-10-19T09:53:30.465Z,89.42
2022-10-19T09:56:04.882Z,90.15
2022-10-19T09:58:33.115Z,87.77
2022-10-19T10:01:00.487Z,86.89
2022-10-19T10:03:40.251Z,86.80
2022-10-19T10:06:09.630Z,85.81
2022-10-19T10:08:39.034Z,84.71
2022-10-19T10:11:10.808Z,83.99
2022-10-19T10:13:39.564Z,83.47
2022-10-19T10:16:08.790Z,83.25
2022-10-19T10:18:52.978Z,83.24
2022-10-19T10:21:35.306Z,82.61
2022-10-19T10:24:10.819Z,81.88
2022-10-19T10:26:42.636Z,82.13
2022-10-19T10:29:32.705Z,80.89
2022-10-19T10:32:05.658Z,80.85
2022-10-19T10:34:56.927Z,81.31
2022-10-19T10:37:44.415Z,81.01
2022-10-19T10:40:24.681Z,80.09
2022-10-19T10:42:53.597Z,78.91
2022-10-19T10:45:26.250Z,78.13
2022-10-19T10:47:52.979Z,79.25
2022-10-19T10:50:22.600Z,78.07
2022-10-19T10:53:00.932Z,76.60
2022-10-19T10:55:28.171Z,77.05
2022-10-19T10:58:09.469Z,77.59
2022-10-19T11:00:40.117Z,77.25
2022-10-19T11:03:25.299Z,76.48
2022-10-19T11:05:56.401Z,76.48
2022-10-19T11:08:32.194Z,76.33
2022-10-19T11:11:15.513Z,75.25
2022-10-19T11:13:57.075Z,73.63
2022-10-19T11:16:38.629Z,71.96
2022-10-19T11:21:47.940Z,71.77
2022-10-19T11:24:39.083Z,71.34
2022-10-19T11:27:42.457Z,71.62
2022-10-19T11:30:10.811Z,70.41
2022-10-19T11:32:58.680Z,70.56
2022-10-19T11:36:04.473Z,69.98
2022-10-19T11:38:52.691Z,69.55
2022-10-19T11:41:39.230Z,68.14
2022-10-19T11:44:43.302Z,66.91
2022-10-19T11:47:34.800Z,65.89
2022-10-19T11:50:33.130Z,65.21
2022-10-19T11:53:10.570Z,65.76
2022-10-19T11:55:51.352Z,66.05
2022-10-19T11:58:52.616Z,67.92
2022-10-19T12:01:56.571Z,67.57
2022-10-19T12:04:50.564Z,66.98
2022-10-19T12:07:29.055Z,66.78
2022-10-19T12:10:22.242Z,64.71
2022-10-19T12:13:01.822Z,64.88
2022-10-19T12:15:32.316Z,61.85
2022-10-19T12:18:04.381Z,59.89
2022-10-19T12:20:45.091Z,60.36
2022-10-19T12:23:35.638Z,60.00
2022-10-19T12:26:04.951Z,59.12
2022-10-19T12:28:33.732Z,58.43
2022-10-19T12:31:01.652Z,58.38
2022-10-19T12:33:38.106Z,57.89
2022-10-19T12:36:13.004Z,57.14
2022-10-19T12:38:53.742Z,55.89
2022-10-19T12:41:52.435Z,55.54
2022-10-19T12:44:32.277Z,56.37
2022-10-19T12:47:21.262Z,56.21
2022-10-19T12:49:49.804Z,55.25
2022-10-19T12:52:38.157Z,55.24
2022-10-19T12:55:24.841Z,54.17
2022-10-19T12:58:06.732Z,54.08
2022-10-19T13:00:37.779Z,54.59
2022-10-19T13:03:07.404Z,54.13
2022-10-19T13:05:35.007Z,54.55
2022-10-19T13:08:04.043Z,54.82
2022-10-19T13:10:32.339Z,54.36
2022-10-19T13:12:58.976Z,53.70
2022-10-19T13:15:50.011Z,52.48
2022-10-19T13:18:54.758Z,53.27
2022-10-19T13:21:43.830Z,52.90
2022-10-19T13:24:25.166Z,52.62
2022-10-19T13:27:03.818Z,53.32
2022-10-19T13:29:40.267Z,53.59
2022-10-19T13:32:44.595Z,53.07
2022-10-19T13:35:37.262Z,54.18
2022-10-19T13:38:10.047Z,53.97
2022-10-19T13:40:56.706Z,52.29
2022-10-19T13:43:29.330Z,52.65
2022-10-19T13:46:06.488Z,52.26
2022-10-19T13:48:54.400Z,50.32
2022-10-19T13:51:32.639Z,52.34
2022-10-19T13:54:08.289Z,53.26
2022-10-19T13:56:58.967Z,51.83
2022-10-19T13:59:49.812Z,51.27
2022-10-19T14:02:35.685Z,52.10
2022-10-19T14:05:20.764Z,51.61
2022-10-19T14:08:01.035Z,52.18
2022-10-19T14:10:32.872Z,50.79
2022-10-19T14:13:00.292Z,50.32
2022-10-19T14:15:29.565Z,51.13
2022-10-19T14:17:57.041Z,52.28
2022-10-19T14:20:34.825Z,53.54
2022-10-19T14:23:20.592Z,53.93
2022-10-19T14:25:51.692Z,55.94
2022-10-19T14:28:18.149Z,55.58
2022-10-19T14:30:44.630Z,55.63
2022-10-19T14:33:14.476Z,54.58
2022-10-19T14:35:44.858Z,54.13
2022-10-19T14:38:18.610Z,55.58
2022-10-19T14:40:45.071Z,56.01
2022-10-19T14:43:25.780Z,55.27
2022-10-19T14:46:07.518Z,54.25
2022-10-19T14:48:45.450Z,54.67
2022-10-19T14:51:45.146Z,52.86
2022-10-19T14:54:20.439Z,52.13
2022-10-19T14:56:56.318Z,54.02
2022-10-19T14:59:30.971Z,55.76
2022-10-19T15:01:59.939Z,57.33
2022-10-19T15:04:32.912Z,58.03
2022-10-19T15:07:01.400Z,59.23
2022-10-19T15:09:37.295Z,59.92
2022-10-19T15:12:18.262Z,60.76
2022-10-19T15:14:45.630Z,60.59
2022-10-19T15:17:21.279Z,60.49
2022-10-19T15:19:47.746Z,60.58
2022-10-19T15:22:14.137Z,60.93
2022-10-19T15:24:55.481Z,61.23
2022-10-19T15:27:28.487Z,62.03
2022-10-19T15:29:56.895Z,62.30
2022-10-19T15:32:25.538Z,62.55
2022-10-19T15:34:52.208Z,63.38
2022-10-19T15:37:22.425Z,63.66
2022-10-19T15:39:50.353Z,64.10
2022-10-19T15:42:52.333Z,65.26
2022-10-19T15:45:32.795Z,65.76
2022-10-19T15:48:22.379Z,65.65
2022-10-19T15:50:51.802Z,65.99
2022-10-19T15:53:19.743Z,66.80
2022-10-19T15:55:46.682Z,68.40
2022-10-19T15:58:14.215Z,67.87
2022-10-19T16:00:41.184Z,68.54
2022-10-19T16:03:07.673Z,69.28
2022-10-19T16:05:35.868Z,70.34
2022-10-19T16:08:02.325Z,70.99
2022-10-19T16:10:28.797Z,71.97
2022-10-19T16:12:55.313Z,72.09
2022-10-19T16:15:22.899Z,72.73
2022-10-19T16:17:54.623Z,73.32
2022-10-19T16:20:21.466Z,73.65
2022-10-19T16:22:48.583Z,74.62
2022-10-19T16:25:15.488Z,74.97
2022-10-19T16:27:41.965Z,74.58
2022-10-19T16:30:08.908Z,74.66
2022-10-19T16:32:35.477Z,75.18
2022-10-19T16:35:02.062Z,74.91
2022-10-19T16:37:28.576Z,75.17
2022-10-19T16:39:55.031Z,74.55
2022-10-19T16:42:22.347Z,74.64
2022-10-19T16:44:50.209Z,75.08
2022-10-19T16:47:19.619Z,75.16
2022-10-19T16:49:48.871Z,75.20
2022-10-19T16:52:15.342Z,75.70
2022-10-19T16:54:41.835Z,75.85
2022-10-19T16:57:11.637Z,76.94
2022-10-19T16:59:38.441Z,78.43
2022-10-19T17:02:05.073Z,79.35
2022-10-19T17:04:31.527Z,79.38
2022-10-19T17:06:58.165Z,80.70
2022-10-19T17:12:11.834Z,80.06
2022-10-19T17:14:39.625Z,79.74
2022-10-19T17:17:06.344Z,80.62
2022-10-19T17:19:32.863Z,80.96
2022-10-19T17:21:59.354Z,81.03
2022-10-19T17:24:26.144Z,81.90
2022-10-19T17:26:54.150Z,82.43
2022-10-19T17:29:28.908Z,82.81
2022-10-19T17:31:55.479Z,82.26
2022-10-19T17:34:22.087Z,82.27
2022-10-19T17:36:53.207Z,82.56
2022-10-19T17:39:27.241Z,82.86
2022-10-19T17:41:57.593Z,83.29
2022-10-19T17:44:24.783Z,83.39
2022-10-19T17:46:51.582Z,84.23
2022-10-19T17:49:18.744Z,83.75
2022-10-19T17:51:45.185Z,83.46
2022-10-19T17:54:13.255Z,82.35
2022-10-19T17:56:40.921Z,82.30
2022-10-19T17:59:08.824Z,82.23
2022-10-19T18:01:37.309Z,82.53
2022-10-19T18:04:05.960Z,83.91
2022-10-19T18:06:35.840Z,85.49
2022-10-19T18:09:24.847Z,86.51
2022-10-19T18:12:07.126Z,87.33
2022-10-19T18:14:42.090Z,88.11
2022-10-19T18:17:10.379Z,88.66
2022-10-19T18:19:45.851Z,87.64
2022-10-19T18:22:13.892Z,88.65
2022-10-19T18:24:41.410Z,90.21
2022-10-19T18:27:08.851Z,91.25
2022-10-19T18:29:35.934Z,92.12
2022-10-19T18:32:02.735Z,92.93
2022-10-19T18:34:29.355Z,92.95
2022-10-19T18:36:55.989Z,93.31
2022-10-19T18:39:23.084Z,92.89
2022-10-19T18:41:52.207Z,93.23
2022-10-19T18:44:23.539Z,93.96
2022-10-19T18:46:53.339Z,94.21
2022-10-19T18:49:19.940Z,93.43
2022-10-19T18:51:50.642Z,93.11
2022-10-19T18:54:21.041Z,92.64
2022-10-19T18:56:47.490Z,92.46
2022-10-19T18:59:15.390Z,92.76
2022-10-19T19:01:42.260Z,93.28
2022-10-19T19:04:09.729Z,93.48
2022-10-19T19:06:37.288Z,94.85
2022-10-19T19:09:09.645Z,94.70
2022-10-19T19:11:38.221Z,95.01
2022-10-19T19:14:15.090Z,95.48
2022-10-19T19:16:45.010Z,96.60
2022-10-19T19:19:13.182Z,96.76
2022-10-19T19:21:43.483Z,97.97
2022-10-19T19:24:12.483Z,98.49
2022-10-19T19:26:41.437Z,98.56
2022-10-19T19:29:09.141Z,98.93
2022-10-19T19:31:36.040Z,99.47
2022-10-19T19:34:03.339Z,99.42
2022-10-19T19:36:30.019Z,99.71
2022-10-19T19:38:56.772Z,99.42
2022-10-19T19:41:24.358Z,99.97
2022-10-19T19:43:50.979Z,99.98
2022-10-19T19:46:18.942Z,100.00
2022-10-19T19:48:47.360Z,100.00
2022-10-19T19:51:19.078Z,100.00
2022-10-19T19:53:46.733Z,100.00
2022-10-19T19:56:14.784Z,100.00
2022-10-19T19:58:42.567Z,100.00
2022-10-19T20:01:12.468Z,100.00
2022-10-19T20:03:40.059Z,100.00
2022-10-19T20:06:06.918Z,100.00
2022-10-19T20:08:34.113Z,100.00
2022-10-19T20:11:03.409Z,100.00
2022-10-19T20:13:30.426Z,100.00
2022-10-19T20:15:57.066Z,100.00
2022-10-19T20:18:23.565Z,100.00
2022-10-19T20:20:50.097Z,100.00
2022-10-19T20:23:16.595Z,100.00
2022-10-19T20:25:43.119Z,100.00
2022-10-19T20:28:09.720Z,100.00
2022-10-19T20:30:36.211Z,100.00
2022-10-19T20:33:02.715Z,100.00
2022-10-19T20:35:29.191Z,100.00
2022-10-19T20:37:57.688Z,100.00
2022-10-19T20:40:24.239Z,100.00
2022-10-19T20:42:50.811Z,99.87
2022-10-19T20:45:17.512Z,99.00
2022-10-19T20:47:44.117Z,98.82
2022-10-19T20:50:10.675Z,98.33
2022-10-19T20:52:38.464Z,97.82
2022-10-19T20:55:06.326Z,98.27
2022-10-19T20:57:32.820Z,97.75
2022-10-19T20:59:59.350Z,98.11
2022-10-19T21:02:26.354Z,98.01
2022-10-19T21:04:53.765Z,98.07
2022-10-19T21:07:20.618Z,97.79
2022-10-19T21:09:47.251Z,98.00
2022-10-19T21:12:14.038Z,97.85
2022-10-19T21:14:40.624Z,97.80
2022-10-19T21:17:07.068Z,97.92
2022-10-19T21:19:34.282Z,98.90
2022-10-19T21:22:03.578Z,98.81
2022-10-19T21:24:34.761Z,99.76
2022-10-19T21:27:03.858Z,99.83
2022-10-19T21:29:30.668Z,100.00
2022-10-19T21:31:57.258Z,99.84
2022-10-19T21:34:26.797Z,100.00
2022-10-19T21:36:53.990Z,100.00
2022-10-19T21:39:20.876Z,100.00
2022-10-19T21:41:47.856Z,100.00
2022-10-19T21:44:15.265Z,100.00
2022-10-19T21:46:43.569Z,100.00
2022-10-19T21:49:13.500Z,100.00
2022-10-19T21:51:48.708Z,100.00
2022-10-19T21:54:18.355Z,100.00
2022-10-19T21:56:45.611Z,100.00
2022-10-19T21:59:12.798Z,100.00
2022-10-19T22:01:41.780Z,100.00
2022-10-19T22:04:14.560Z,100.00
2022-10-19T22:06:41.689Z,100.00
2022-10-19T22:09:10.376Z,100.00
2022-10-19T22:11:37.093Z,100.00
2022-10-19T22:14:04.540Z,100.00
2022-10-19T22:16:32.101Z,100.00
2022-10-19T22:19:02.403Z,100.00
2022-10-19T22:21:30.855Z,100.00
2022-10-19T22:24:09.120Z,100.00
2022-10-19T22:26:41.817Z,100.00
2022-10-19T22:29:08.649Z,100.00
2022-10-19T22:31:38.491Z,100.00
2022-10-19T22:34:07.962Z,100.00
2022-10-19T22:36:35.766Z,100.00
2022-10-19T22:39:04.118Z,100.00
2022-10-19T22:41:30.769Z,100.00
2022-10-19T22:43:57.255Z,100.00
2022-10-19T22:46:23.849Z,100.00
2022-10-19T22:48:50.315Z,100.00
2022-10-19T22:51:16.904Z,100.00
2022-10-19T22:53:43.452Z,100.00
2022-10-19T22:56:14.416Z,100.00
2022-10-19T22:58:41.222Z,100.00
2022-10-19T23:01:10.588Z,100.00
2022-10-19T23:03:39.275Z,100.00
2022-10-19T23:06:10.575Z,100.00
2022-10-19T23:08:37.129Z,100.00
2022-10-19T23:11:03.730Z,100.00
2022-10-19T23:13:30.248Z,100.00
2022-10-19T23:15:56.820Z,100.00
2022-10-19T23:18:23.388Z,100.00
2022-10-19T23:20:57.440Z,100.00
2022-10-19T23:23:24.227Z,100.00
2022-10-19T23:26:18.160Z,100.00
2022-10-19T23:28:46.291Z,100.00
2022-10-19T23:31:15.649Z,100.00
2022-10-19T23:33:42.983Z,100.00
2022-10-19T23:36:14.359Z,100.00
2022-10-19T23:38:42.302Z,100.00
2022-10-19T23:41:08.928Z,100.00
2022-10-19T23:48:44.205Z,100.00
2022-10-19T23:51:13.659Z,100.00
2022-10-19T23:53:41.733Z,100.00
2022-10-19T23:56:20.018Z,100.00
2022-10-19T23:58:46.936Z,100.00
